Jenison, Michigan
Current Conditions -  °F | °C
As of 12:53 AM on Tuesday 27 Jan 2015 (Local Time) from KGRR Reporting Station
Overcast Overcast  
Wind Chill:   Ceiling: 9500
Heat Index: 18°   Visibility: 10mi
Dew Point: 11°   Wind: 7mph
Humidity: 74%   Direction: 70°ENE
Pressure: 29.97"   Gusts: NA
Location:  42.9°N, 85.78°W
Report Text: KGRR 270553Z AUTO 07006KT 10SM FEW070 BKN095 OVC120 M08/M12 A2997 RMK AO2 SLP163 T10781117 11061 21078 52005
Loading
Personal Weather Stations






























Interactive Weather Map New forecast layout! Learn more

10-Day Weather Forecast

Advertisements
Track Severe Weather on mobile